Flag for South Africa

Past Weather in 34°10'37.1"S, 22°08'38.0"E, South Africa — Yesterday and Last 2 Weeks

Currently: 46 °F. Clear. (Weather station: George Airport, South Africa). See more current weather

Past Weather in 34°10'37.1"S, 22°08'38.0"E — Graph

°F

34°10'37.1"S, 22°08'38.0"E Temperature Yesterday

Maximum temperature yesterday: 61 °F (at 11:00 am)
Minimum temperature yesterday: 43 °F (at 5:00 am)
Average temperature yesterday: 51 °F

High & Low Weather Summary for the Past Weeks

 TemperatureHumidityPressure
High82 °F (Jun 12, 2:00 pm)100% (Jun 13, 11:14 pm)30.54 "Hg (Jun 13, 11:14 pm)
Low41 °F (Jun 16, 1:00 am)17% (Jun 12, 2:00 pm)29.65 "Hg (Jun 13, 10:21 pm)
Average56 °F72%30.09 "Hg
* Reported Jun 12 5:00 am — Jun 26 9:54 pm, 34°10'37.1"S, 22°08'38.0"E. Weather by CustomWeather, © 2022

Note: Actual official high and low records may vary slightly from our data, if they occured in-between our weather recording intervals... More about our weather records

34°10'37.1"S, 22°08'38.0"E Weather History for the Previous 24 Hours

Scroll right to see more
 ConditionsComfort  
Time TempWeatherWind HumidityBarometerVisibility
9:54 pm
Sun, Jun 26
46 °FClear.2 mph100%30.54 "Hg4 mi
9:31 pm46 °FPassing clouds.2 mph100%30.54 "Hg1 mi
9:00 pm48 °FPassing clouds.2 mph94%30.54 "Hg1 mi
8:18 pm48 °FPassing clouds.5 mph100%30.54 "Hg1 mi
8:00 pm52 °FClear.5 mph94%30.54 "Hg10 mi
7:00 pm52 °FPassing clouds.6 mph94%30.54 "HgN/A
6:00 pm54 °FPassing clouds.5 mph88%30.54 "HgN/A
5:00 pm57 °FPartly sunny.5 mph82%30.54 "HgN/A
4:00 pm57 °FScattered clouds.6 mph82%30.51 "HgN/A
3:00 pm59 °FPassing clouds.7 mph77%30.51 "HgN/A
2:00 pm59 °FSunny.9 mph77%30.51 "Hg10 mi
1:00 pm63 °FSunny.2 mph52%30.51 "Hg10 mi
12:00 pm61 °FSunny.2 mph59%30.54 "Hg10 mi
11:00 am59 °FSunny.2 mph68%30.54 "Hg10 mi
10:00 am57 °FSunny.No wind67%30.51 "Hg10 mi
9:38 am54 °FPassing clouds.3 mph72%30.51 "HgN/A
9:12 am50 °FSunny.3 mph82%30.51 "Hg10 mi
8:22 am45 °FSunny.3 mph81%30.48 "Hg10 mi
8:00 am41 °FSunny.3 mph87%30.48 "Hg10 mi
7:00 am41 °FClear.2 mph93%30.45 "Hg10 mi
6:00 am41 °FClear.6 mph93%30.45 "Hg10 mi
5:00 am45 °FClear.2 mph87%30.42 "Hg10 mi
4:00 am43 °FQuite cool.6 mph87%30.45 "HgN/A
3:00 am43 °FQuite cool.3 mph93%30.45 "HgN/A
1:00 am43 °FQuite cool.3 mph93%30.48 "HgN/A
12:30 am45 °FQuite cool.1 mph93%30.48 "HgN/A
11:00 pm
Sat, Jun 25
45 °FQuite cool.3 mph93%30.48 "HgN/A
Weather by CustomWeather, © 2022

See weather overview